Time;durP1;ratioP1;P1;durP2;ratioP2;P2;SDS_P1;SDS_P2;PMS_P1;PMS_P2;Temp;Humidity;BMP_temperature;BMP_pressure;BME280_temperature;BME280_humidity;BME280_pressure;Samples;Min_cycle;Max_cycle;Signal;HPM_P1;HPM_P2
2022/12/06 00:01:18;;;;;;;;;;;;;;;;;;5153963;27;1145;-40
2022/12/06 00:03:46;;;;;;;;;;;;;;;;;;5153845;27;1319;-40
2022/12/06 00:06:15;;;;;;;;;;;;;;;;;;5135195;27;1959;-41
2022/12/06 00:08:42;;;;;;;;;;;;;;;;;;5153657;27;1030;-41
2022/12/06 00:11:14;;;;;;;;;;;;;;;;;;5153752;27;1073;-40
2022/12/06 00:13:42;;;;;;;;;;;;;;;;;;5153484;27;1216;-40
2022/12/06 00:16:11;;;;;;;;;;;;;;;;;;5153263;27;897;-40
2022/12/06 00:18:38;;;;;;;;;;;;;;;;;;5153601;27;1090;-41
2022/12/06 00:21:10;;;;;;;;;;;;;;;;;;5167701;27;1292;-41
2022/12/06 00:23:39;;;;;;;;;;;;;;;;;;5174344;27;1017;-40
2022/12/06 00:26:06;;;;;;;;;;;;;;;;;;5174263;27;1980;-41
2022/12/06 00:28:34;;;;;;;;;;;;;;;;;;5174415;27;996;-40
2022/12/06 00:31:02;;;;;;;;;;;;;;;;;;5171422;27;1297;-40
2022/12/06 00:33:30;;;;;;;;;;;;;;;;;;5170137;27;1008;-41
2022/12/06 00:35:57;;;;;;;;;;;;;;;;;;5174510;27;995;-40
2022/12/06 00:38:25;;;;;;;;;;;;;;;;;;5173992;27;1291;-41
2022/12/06 00:41:03;;;;;;;;;;;;;;;;;;5174024;27;953;-41
2022/12/06 00:43:32;;;;;;;;;;;;;;;;;;5174038;27;1002;-40
2022/12/06 00:45:59;;;;;;;;;;;;;;;;;;5174244;27;947;-39
2022/12/06 00:48:27;;;;;;;;;;;;;;;;;;5173998;27;1918;-40
2022/12/06 00:50:54;;;;;;;;;;;;;;;;;;5173873;27;1063;-41
2022/12/06 00:53:21;;;;;;;;;;;;;;;;;;5174128;27;1490;-40
2022/12/06 00:55:48;;;;;;;;;;;;;;;;;;5173882;27;976;-40
2022/12/06 00:58:16;;;;;;;;;;;;;;;;;;5173761;27;1053;-41
2022/12/06 01:00:43;;;;;;;;;;;;;;;;;;5173836;27;1158;-40
2022/12/06 01:03:10;;;;;;;;;;;;;;;;;;5173894;27;1094;-41
2022/12/06 01:05:41;;;;;;;;;;;;;;;;;;5173609;27;1284;-39
2022/12/06 01:08:08;;;;;;;;;;;;;;;;;;5173859;27;1909;-40
2022/12/06 01:10:36;;;;;;;;;;;;;;;;;;5173745;27;1058;-40
2022/12/06 01:13:03;;;;;;;;;;;;;;;;;;5155196;27;1431;-40
2022/12/06 01:15:31;;;;;;;;;;;;;;;;;;5173752;27;1369;-40
2022/12/06 01:17:58;;;;;;;;;;;;;;;;;;5173862;27;950;-40
2022/12/06 01:20:25;;;;;;;;;;;;;;;;;;5165038;27;1307;-40
2022/12/06 01:22:52;;;;;;;;;;;;;;;;;;5152845;27;899;-41
2022/12/06 01:25:19;;;;;;;;;;;;;;;;;;5152477;27;1104;-40
2022/12/06 01:27:48;;;;;;;;;;;;;;;;;;5155564;27;1905;-40
2022/12/06 01:30:15;;;;;;;;;;;;;;;;;;5156849;27;1066;-40
2022/12/06 01:32:42;;;;;;;;;;;;;;;;;;5156796;27;913;-40
2022/12/06 01:35:08;;;;;;;;;;;;;;;;;;5156888;27;962;-41
2022/12/06 01:37:35;;;;;;;;;;;;;;;;;;5156631;27;1018;-41
2022/12/06 01:40:03;;;;;;;;;;;;;;;;;;5138244;27;1177;-41
2022/12/06 01:42:30;;;;;;;;;;;;;;;;;;5147011;27;1102;-40
2022/12/06 01:44:58;;;;;;;;;;;;;;;;;;5177416;27;1044;-41
2022/12/06 01:47:27;;;;;;;;;;;;;;;;;;5177584;27;1959;-40
2022/12/06 01:50:17;;;;;;;;;;;;;;;;;;5177316;27;1093;-41
2022/12/06 01:52:44;;;;;;;;;;;;;;;;;;5144928;27;1478;-40
2022/12/06 01:55:12;;;;;;;;;;;;;;;;;;5156440;27;1077;-41
2022/12/06 01:57:39;;;;;;;;;;;;;;;;;;5156453;27;1393;-40
2022/12/06 02:00:07;;;;;;;;;;;;;;;;;;5137693;27;1391;-41
2022/12/06 02:02:37;;;;;;;;;;;;;;;;;;5156368;27;1285;-40
2022/12/06 02:05:04;;;;;;;;;;;;;;;;;;5156011;27;1676;-40
2022/12/06 02:07:32;;;;;;;;;;;;;;;;;;5156269;27;1958;-40
2022/12/06 02:10:00;;;;;;;;;;;;;;;;;;5156138;27;979;-40
2022/12/06 02:12:27;;;;;;;;;;;;;;;;;;5163332;27;1083;-40
2022/12/06 02:14:55;;;;;;;;;;;;;;;;;;5176777;27;1318;-40
2022/12/06 02:17:36;;;;;;;;;;;;;;;;;;5176729;27;899;-40
2022/12/06 02:20:13;;;;;;;;;;;;;;;;;;5171658;27;1271;-39
2022/12/06 02:22:48;;;;;;;;;;;;;;;;;;5155996;27;955;-41
2022/12/06 02:25:45;;;;;;;;;;;;;;;;;;5155918;27;1127;-40
2022/12/06 02:28:18;;;;;;;;;;;;;;;;;;5155757;27;1922;-41
2022/12/06 02:30:54;;;;;;;;;;;;;;;;;;5155882;27;950;-40
2022/12/06 02:33:24;;;;;;;;;;;;;;;;;;5155806;27;1188;-40
2022/12/06 02:36:02;;;;;;;;;;;;;;;;;;5136864;27;2601;-40
2022/12/06 02:38:36;;;;;;;;;;;;;;;;;;5155093;27;1164;-41
2022/12/06 02:41:08;;;;;;;;;;;;;;;;;;5155699;27;1067;-40
2022/12/06 02:43:45;;;;;;;;;;;;;;;;;;5156081;27;918;-41
2022/12/06 02:46:13;;;;;;;;;;;;;;;;;;5155450;27;1617;-40
2022/12/06 02:48:42;;;;;;;;;;;;;;;;;;5155302;27;1906;-41
2022/12/06 02:51:11;;;;;;;;;;;;;;;;;;5155248;27;1348;-41
2022/12/06 02:53:40;;;;;;;;;;;;;;;;;;5168649;27;1078;-40
2022/12/06 02:56:07;;;;;;;;;;;;;;;;;;5175904;27;1428;-41
2022/12/06 02:58:38;;;;;;;;;;;;;;;;;;5176282;27;1021;-40
2022/12/06 03:01:16;;;;;;;;;;;;;;;;;;5176114;27;1086;-40
2022/12/06 03:03:49;;;;;;;;;;;;;;;;;;5175944;27;1066;-41
2022/12/06 03:06:30;;;;;;;;;;;;;;;;;;5175663;27;1603;-40
2022/12/06 03:09:12;;;;;;;;;;;;;;;;;;5157387;27;1909;-40
2022/12/06 03:12:02;;;;;;;;;;;;;;;;;;5175871;27;1189;-40
2022/12/06 03:14:34;;;;;;;;;;;;;;;;;;5175717;27;945;-40
2022/12/06 03:17:20;;;;;;;;;;;;;;;;;;5175684;27;1137;-40
2022/12/06 03:19:49;;;;;;;;;;;;;;;;;;5175423;27;1378;-40
2022/12/06 03:22:26;;;;;;;;;;;;;;;;;;5175552;27;1015;-41
2022/12/06 03:24:54;;;;;;;;;;;;;;;;;;5175588;27;966;-41
2022/12/06 03:27:22;;;;;;;;;;;;;;;;;;5175330;27;2425;-41
2022/12/06 03:29:51;;;;;;;;;;;;;;;;;;5175396;27;1016;-40
2022/12/06 03:32:19;;;;;;;;;;;;;;;;;;5175357;27;1152;-41
2022/12/06 03:34:48;;;;;;;;;;;;;;;;;;5175270;27;1024;-40
2022/12/06 03:37:18;;;;;;;;;;;;;;;;;;5175238;27;1010;-40
2022/12/06 03:39:47;;;;;;;;;;;;;;;;;;5175322;27;978;-40
2022/12/06 03:42:14;;;;;;;;;;;;;;;;;;5175165;27;1176;-40
2022/12/06 03:44:41;;;;;;;;;;;;;;;;;;5175541;27;1034;-40
2022/12/06 03:47:27;;;;;;;;;;;;;;;;;;5175019;27;1905;-40
2022/12/06 03:49:57;;;;;;;;;;;;;;;;;;5174201;27;1441;-40
2022/12/06 03:52:24;;;;;;;;;;;;;;;;;;5156444;27;1382;-40
2022/12/06 03:54:51;;;;;;;;;;;;;;;;;;5174961;27;1173;-40
2022/12/06 03:57:18;;;;;;;;;;;;;;;;;;5174723;27;943;-39
2022/12/06 03:59:45;;;;;;;;;;;;;;;;;;5174887;27;1367;-41
2022/12/06 04:02:12;;;;;;;;;;;;;;;;;;5156292;27;1389;-39
2022/12/06 04:04:39;;;;;;;;;;;;;;;;;;5174726;27;1332;-40
2022/12/06 04:07:08;;;;;;;;;;;;;;;;;;5174681;27;1982;-42
2022/12/06 04:09:51;;;;;;;;;;;;;;;;;;5174422;27;1159;-40
2022/12/06 04:15:04;;;;;;;;;;;;;;;;;;5174719;27;986;-40
2022/12/06 04:20:16;;;;;;;;;;;;;;;;;;5166955;27;1382;-40
2022/12/06 04:25:30;;;;;;;;;;;;;;;;;;5170311;27;2004;-41
2022/12/06 04:39:00;;;;;;;;;;;;;;;;;;5153255;27;888;-40
2022/12/06 04:44:12;;;;;;;;;;;;;;;;;;5153327;27;1006;-40
2022/12/06 04:46:39;;;;;;;;;;;;;;;;;;5153127;27;1042;-42
2022/12/06 04:49:06;;;;;;;;;;;;;;;;;;5152988;27;1972;-40
2022/12/06 04:51:35;;;;;;;;;;;;;;;;;;5152899;27;1076;-40
2022/12/06 04:54:02;;;;;;;;;;;;;;;;;;5153106;27;1162;-41
2022/12/06 04:56:29;;;;;;;;;;;;;;;;;;5134318;27;1533;-38
2022/12/06 04:58:56;;;;;;;;;;;;;;;;;;5153119;27;1013;-41
2022/12/06 05:01:23;;;;;;;;;;;;;;;;;;5152856;27;1077;-40
2022/12/06 05:03:51;;;;;;;;;;;;;;;;;;5152944;27;1095;-40
2022/12/06 05:06:18;;;;;;;;;;;;;;;;;;5152627;27;1352;-40
2022/12/06 05:08:45;;;;;;;;;;;;;;;;;;5153013;27;1977;-39
2022/12/06 05:11:12;;;;;;;;;;;;;;;;;;5152785;27;1297;-39
2022/12/06 05:13:39;;;;;;;;;;;;;;;;;;5134577;27;1029;-40
2022/12/06 05:16:06;;;;;;;;;;;;;;;;;;5152673;27;1165;-40
2022/12/06 05:18:33;;;;;;;;;;;;;;;;;;5172056;27;1033;-39
2022/12/06 05:21:20;;;;;;;;;;;;;;;;;;5159933;27;1275;-40
2022/12/06 05:23:47;;;;;;;;;;;;;;;;;;5152878;27;982;-40
2022/12/06 05:26:16;;;;;;;;;;;;;;;;;;5152825;27;1376;-40
2022/12/06 05:28:44;;;;;;;;;;;;;;;;;;5152616;27;1903;-40
2022/12/06 05:31:11;;;;;;;;;;;;;;;;;;5152613;27;983;-39
2022/12/06 05:33:38;;;;;;;;;;;;;;;;;;5152677;27;1188;-40
2022/12/06 05:36:07;;;;;;;;;;;;;;;;;;5152719;27;1132;-40
2022/12/06 05:38:34;;;;;;;;;;;;;;;;;;5152618;27;1265;-40
2022/12/06 05:41:02;;;;;;;;;;;;;;;;;;5152688;27;1202;-40
2022/12/06 05:43:29;;;;;;;;;;;;;;;;;;5152384;27;1351;-40
2022/12/06 05:45:57;;;;;;;;;;;;;;;;;;5152444;27;1334;-42
2022/12/06 05:48:25;;;;;;;;;;;;;;;;;;5152423;27;1977;-44
2022/12/06 05:50:52;;;;;;;;;;;;;;;;;;5170513;27;1061;-40
2022/12/06 05:53:20;;;;;;;;;;;;;;;;;;5173520;27;1004;-40
2022/12/06 05:55:47;;;;;;;;;;;;;;;;;;5173509;27;1075;-40
2022/12/06 05:58:14;;;;;;;;;;;;;;;;;;5173371;27;1243;-43
2022/12/06 06:00:45;;;;;;;;;;;;;;;;;;5173327;27;1093;-41
2022/12/06 06:03:12;;;;;;;;;;;;;;;;;;5173418;27;997;-41
2022/12/06 06:05:46;;;;;;;;;;;;;;;;;;5173214;27;1296;-41
2022/12/06 06:08:13;;;;;;;;;;;;;;;;;;5173219;27;1973;-40
2022/12/06 06:10:40;;;;;;;;;;;;;;;;;;5173251;27;984;-40
2022/12/06 06:13:07;;;;;;;;;;;;;;;;;;5174661;27;1102;-40
2022/12/06 06:15:34;;;;;;;;;;;;;;;;;;5177165;27;1168;-41
2022/12/06 06:18:01;;;;;;;;;;;;;;;;;;5176942;27;1066;-41
2022/12/06 06:20:29;;;;;;;;;;;;;;;;;;5167609;27;1259;-41
2022/12/06 06:22:56;;;;;;;;;;;;;;;;;;5155920;27;1043;-41
2022/12/06 06:25:23;;;;;;;;;;;;;;;;;;5155643;27;1116;-40
2022/12/06 06:27:50;;;;;;;;;;;;;;;;;;5155994;27;1905;-41
2022/12/06 06:30:17;;;;;;;;;;;;;;;;;;5155761;27;920;-40
2022/12/06 06:32:44;;;;;;;;;;;;;;;;;;5155668;27;1241;-40
2022/12/06 06:35:11;;;;;;;;;;;;;;;;;;5161238;27;1173;-40
2022/12/06 06:37:38;;;;;;;;;;;;;;;;;;5176403;27;911;-40
2022/12/06 06:40:06;;;;;;;;;;;;;;;;;;5176247;27;1041;-40
2022/12/06 06:42:33;;;;;;;;;;;;;;;;;;5176491;27;1357;-41
2022/12/06 06:45:00;;;;;;;;;;;;;;;;;;5157709;27;1320;-40
2022/12/06 06:47:27;;;;;;;;;;;;;;;;;;5176356;27;1233;-40
2022/12/06 06:49:54;;;;;;;;;;;;;;;;;;5176052;27;1912;-41
2022/12/06 06:52:21;;;;;;;;;;;;;;;;;;5176121;27;1060;-41
2022/12/06 06:54:48;;;;;;;;;;;;;;;;;;5175350;27;1104;-41
2022/12/06 06:57:15;;;;;;;;;;;;;;;;;;5175961;27;1101;-39
2022/12/06 06:59:44;;;;;;;;;;;;;;;;;;5157835;27;1078;-41
2022/12/06 07:02:12;;;;;;;;;;;;;;;;;;5175928;27;1067;-43
2022/12/06 07:04:39;;;;;;;;;;;;;;;;;;5175870;27;1249;-41
2022/12/06 07:07:06;;;;;;;;;;;;;;;;;;5156949;27;1368;-40
2022/12/06 07:09:33;;;;;;;;;;;;;;;;;;5157407;27;1915;-42
2022/12/06 07:12:01;;;;;;;;;;;;;;;;;;5157182;27;1733;-40
2022/12/06 07:14:28;;;;;;;;;;;;;;;;;;5175636;27;1055;-41
2022/12/06 07:16:56;;;;;;;;;;;;;;;;;;5175683;27;1058;-41
2022/12/06 07:19:25;;;;;;;;;;;;;;;;;;5175486;27;1380;-40
2022/12/06 07:21:52;;;;;;;;;;;;;;;;;;5155084;27;1133;-41
2022/12/06 07:24:19;;;;;;;;;;;;;;;;;;5154646;27;1307;-41
2022/12/06 07:26:47;;;;;;;;;;;;;;;;;;5154647;27;1191;-41
2022/12/06 07:29:14;;;;;;;;;;;;;;;;;;5136308;27;1998;-41
2022/12/06 07:31:42;;;;;;;;;;;;;;;;;;5154448;27;988;-41
2022/12/06 07:34:09;;;;;;;;;;;;;;;;;;5154463;27;937;-40
2022/12/06 07:36:36;;;;;;;;;;;;;;;;;;5154528;27;1058;-41
2022/12/06 07:39:03;;;;;;;;;;;;;;;;;;5154481;27;995;-42
2022/12/06 07:47:26;;;;;;;;;;;;;;;;;;5154643;27;1161;-40
2022/12/06 07:49:53;;;;;;;;;;;;;;;;;;5154530;27;1934;-42
2022/12/06 07:52:20;;;;;;;;;;;;;;;;;;5154150;27;997;-43
2022/12/06 07:54:47;;;;;;;;;;;;;;;;;;5154042;27;1082;-41
2022/12/06 07:57:15;;;;;;;;;;;;;;;;;;5154131;27;1063;-40
2022/12/06 07:59:42;;;;;;;;;;;;;;;;;;5154087;27;1243;-40
2022/12/06 08:02:15;;;;;;;;;;;;;;;;;;5154005;27;1215;-40
2022/12/06 08:04:42;;;;;;;;;;;;;;;;;;5153782;27;1680;-40
2022/12/06 08:07:09;;;;;;;;;;;;;;;;;;5153896;27;969;-40
2022/12/06 08:09:37;;;;;;;;;;;;;;;;;;5153501;27;1983;-41
2022/12/06 08:12:04;;;;;;;;;;;;;;;;;;5153852;27;879;-40
2022/12/06 08:14:31;;;;;;;;;;;;;;;;;;5153617;27;920;-39
2022/12/06 08:16:58;;;;;;;;;;;;;;;;;;5153891;27;1068;-41
2022/12/06 08:19:25;;;;;;;;;;;;;;;;;;5118325;27;1018;-39
2022/12/06 08:21:52;;;;;;;;;;;;;;;;;;5174340;27;1066;-41
2022/12/06 08:24:19;;;;;;;;;;;;;;;;;;5174438;27;1002;-40
2022/12/06 08:26:46;;;;;;;;;;;;;;;;;;5174348;27;910;-39
2022/12/06 08:29:13;;;;;;;;;;;;;;;;;;5174340;27;1913;-40
2022/12/06 08:31:40;;;;;;;;;;;;;;;;;;5174223;27;947;-40
2022/12/06 08:34:08;;;;;;;;;;;;;;;;;;5174159;27;1287;-40
2022/12/06 08:36:36;;;;;;;;;;;;;;;;;;5173726;27;992;-40
2022/12/06 08:39:04;;;;;;;;;;;;;;;;;;5174152;27;1075;-41
2022/12/06 08:44:17;;;;;;;;;;;;;;;;;;5173871;27;1272;-40
2022/12/06 08:46:44;;;;;;;;;;;;;;;;;;5174078;27;1055;-40
2022/12/06 08:49:12;;;;;;;;;;;;;;;;;;5155103;27;1911;-39
2022/12/06 08:51:39;;;;;;;;;;;;;;;;;;5155297;27;1041;-39
2022/12/06 08:54:08;;;;;;;;;;;;;;;;;;5174041;27;934;-40
2022/12/06 08:56:36;;;;;;;;;;;;;;;;;;5173825;27;1069;-40
2022/12/06 08:59:03;;;;;;;;;;;;;;;;;;5173894;27;1183;-40
2022/12/06 09:01:31;;;;;;;;;;;;;;;;;;5161112;27;1077;-39
2022/12/06 09:04:03;;;;;;;;;;;;;;;;;;5152996;27;1068;-40
2022/12/06 09:06:31;;;;;;;;;;;;;;;;;;5152848;27;1423;-41
2022/12/06 09:08:58;;;;;;;;;;;;;;;;;;5152997;27;1953;-40
2022/12/06 09:11:25;;;;;;;;;;;;;;;;;;5152934;27;1283;-40
2022/12/06 09:13:52;;;;;;;;;;;;;;;;;;5152327;27;1074;-40
2022/12/06 09:16:20;;;;;;;;;;;;;;;;;;5152607;27;1117;-40
2022/12/06 09:18:48;;;;;;;;;;;;;;;;;;5152603;27;1104;-39
2022/12/06 09:21:16;;;;;;;;;;;;;;;;;;5152710;27;1307;-40
2022/12/06 09:23:44;;;;;;;;;;;;;;;;;;5152791;27;1248;-42
2022/12/06 09:26:11;;;;;;;;;;;;;;;;;;5152563;27;1146;-40
2022/12/06 09:28:39;;;;;;;;;;;;;;;;;;5152631;27;1903;-43
2022/12/06 09:31:07;;;;;;;;;;;;;;;;;;5152553;27;1001;-40
2022/12/06 09:33:35;;;;;;;;;;;;;;;;;;5152759;27;970;-40
2022/12/06 09:36:05;;;;;;;;;;;;;;;;;;5152810;27;1025;-40
2022/12/06 09:38:35;;;;;;;;;;;;;;;;;;5153103;27;1119;-40
2022/12/06 09:41:37;;;;;;;;;;;;;;;;;;5152910;27;1445;-40
2022/12/06 09:44:12;;;;;;;;;;;;;;;;;;5068466;28;1161;-40
2022/12/06 09:46:40;;;;;;;;;;;;;;;;;;5141037;27;1399;-40
2022/12/06 09:49:39;;;;;;;;;;;;;;;;;;5155751;27;1976;-41
2022/12/06 09:52:15;;;;;;;;;;;;;;;;;;5111118;27;1383;-40
2022/12/06 09:54:51;;;;;;;;;;;;;;;;;;5156458;27;1064;-41
2022/12/06 09:57:25;;;;;;;;;;;;;;;;;;5156514;27;1078;-41
2022/12/06 10:00:00;;;;;;;;;;;;;;;;;;5156402;27;1255;-40
2022/12/06 10:02:56;;;;;;;;;;;;;;;;;;5156332;27;1214;-39
2022/12/06 10:05:26;;;;;;;;;;;;;;;;;;5137334;27;1286;-41
2022/12/06 10:08:16;;;;;;;;;;;;;;;;;;5156124;27;1335;-40
2022/12/06 10:10:52;;;;;;;;;;;;;;;;;;5155736;27;2257;-39
2022/12/06 10:13:37;;;;;;;;;;;;;;;;;;5156150;27;999;-40
2022/12/06 10:16:04;;;;;;;;;;;;;;;;;;5155932;27;1154;-40
2022/12/06 10:18:37;;;;;;;;;;;;;;;;;;5156266;27;1049;-41
2022/12/06 10:21:10;;;;;;;;;;;;;;;;;;5170222;27;1265;-39
2022/12/06 10:23:40;;;;;;;;;;;;;;;;;;5176826;27;1353;-40
2022/12/06 10:26:14;;;;;;;;;;;;;;;;;;5176657;27;962;-38
2022/12/06 10:28:47;;;;;;;;;;;;;;;;;;5176697;27;1132;-40
2022/12/06 10:31:20;;;;;;;;;;;;;;;;;;5176409;27;1079;-39
2022/12/06 10:33:55;;;;;;;;;;;;;;;;;;5176663;27;1205;-41
2022/12/06 10:36:42;;;;;;;;;;;;;;;;;;5176382;27;1146;-40
2022/12/06 10:39:21;;;;;;;;;;;;;;;;;;5176413;27;1160;-40
2022/12/06 10:42:08;;;;;;;;;;;;;;;;;;5176346;27;1032;-39
2022/12/06 10:44:47;;;;;;;;;;;;;;;;;;5159067;27;1862;-40
2022/12/06 10:47:20;;;;;;;;;;;;;;;;;;5176232;27;1025;-40
2022/12/06 10:49:47;;;;;;;;;;;;;;;;;;5176154;27;1975;-41
2022/12/06 10:52:33;;;;;;;;;;;;;;;;;;5176176;27;932;-39
2022/12/06 10:55:09;;;;;;;;;;;;;;;;;;5175974;27;1033;-40
2022/12/06 10:57:39;;;;;;;;;;;;;;;;;;5176343;27;1146;-39
2022/12/06 11:00:13;;;;;;;;;;;;;;;;;;5175786;27;1207;-39
2022/12/06 11:02:44;;;;;;;;;;;;;;;;;;5175747;27;966;-40
2022/12/06 11:05:20;;;;;;;;;;;;;;;;;;5175484;27;1265;-40
2022/12/06 11:07:49;;;;;;;;;;;;;;;;;;5175920;27;1074;-39
2022/12/06 11:10:22;;;;;;;;;;;;;;;;;;5175575;27;1980;-39
2022/12/06 11:12:53;;;;;;;;;;;;;;;;;;5175588;27;1002;-40
2022/12/06 11:15:23;;;;;;;;;;;;;;;;;;5175784;27;1057;-40
2022/12/06 11:17:53;;;;;;;;;;;;;;;;;;5175751;27;1251;-40
2022/12/06 11:20:27;;;;;;;;;;;;;;;;;;5149316;27;1470;-39
2022/12/06 11:23:04;;;;;;;;;;;;;;;;;;5154816;27;943;-41
2022/12/06 11:25:38;;;;;;;;;;;;;;;;;;5154379;27;1162;-40
2022/12/06 11:28:20;;;;;;;;;;;;;;;;;;5154665;27;1093;-40
2022/12/06 11:30:50;;;;;;;;;;;;;;;;;;5135808;27;1913;-39
2022/12/06 11:33:19;;;;;;;;;;;;;;;;;;5136201;27;1017;-40
2022/12/06 11:35:46;;;;;;;;;;;;;;;;;;5135930;27;1029;-40
2022/12/06 11:38:14;;;;;;;;;;;;;;;;;;5172368;27;1101;-40
2022/12/06 11:40:44;;;;;;;;;;;;;;;;;;5175126;27;1298;-40
2022/12/06 11:43:16;;;;;;;;;;;;;;;;;;5175295;27;992;-40
2022/12/06 11:45:44;;;;;;;;;;;;;;;;;;5175069;27;1180;-40
2022/12/06 11:48:16;;;;;;;;;;;;;;;;;;5175183;27;1472;-40
2022/12/06 11:50:44;;;;;;;;;;;;;;;;;;5174927;27;1914;-40
2022/12/06 11:53:18;;;;;;;;;;;;;;;;;;5174831;27;1092;-40
2022/12/06 11:55:47;;;;;;;;;;;;;;;;;;5174991;27;965;-40
2022/12/06 11:58:25;;;;;;;;;;;;;;;;;;5174520;27;1307;-40
2022/12/06 12:01:00;;;;;;;;;;;;;;;;;;5174439;27;1023;-43
2022/12/06 12:03:32;;;;;;;;;;;;;;;;;;5174871;27;974;-40
2022/12/06 12:06:06;;;;;;;;;;;;;;;;;;5174520;27;1101;-39
2022/12/06 12:08:34;;;;;;;;;;;;;;;;;;5174515;27;899;-39
2022/12/06 12:11:03;;;;;;;;;;;;;;;;;;5173039;27;1972;-40
2022/12/06 12:13:43;;;;;;;;;;;;;;;;;;5174197;27;1072;-40
2022/12/06 12:16:10;;;;;;;;;;;;;;;;;;5174660;27;1505;-40
2022/12/06 12:18:40;;;;;;;;;;;;;;;;;;5174262;27;1011;-40
2022/12/06 12:21:08;;;;;;;;;;;;;;;;;;5159739;27;1334;-40
2022/12/06 12:23:42;;;;;;;;;;;;;;;;;;5153345;27;1195;-40
2022/12/06 12:26:09;;;;;;;;;;;;;;;;;;5153600;27;979;-41
2022/12/06 12:28:37;;;;;;;;;;;;;;;;;;5153305;27;1326;-40
2022/12/06 12:31:21;;;;;;;;;;;;;;;;;;5153113;27;2000;-40
2022/12/06 12:34:08;;;;;;;;;;;;;;;;;;5153298;27;1185;-40
2022/12/06 12:36:36;;;;;;;;;;;;;;;;;;5135143;27;995;-39
2022/12/06 12:39:03;;;;;;;;;;;;;;;;;;5153130;27;1000;-40
2022/12/06 12:41:32;;;;;;;;;;;;;;;;;;5153167;27;1166;-40
2022/12/06 12:44:01;;;;;;;;;;;;;;;;;;5153213;27;911;-40
2022/12/06 12:46:51;;;;;;;;;;;;;;;;;;5152952;27;1102;-40
2022/12/06 12:49:29;;;;;;;;;;;;;;;;;;5153001;27;982;-39
2022/12/06 12:51:57;;;;;;;;;;;;;;;;;;5153137;27;1077;-41
2022/12/06 12:54:24;;;;;;;;;;;;;;;;;;5134627;27;1015;-40
2022/12/06 12:56:52;;;;;;;;;;;;;;;;;;5153084;27;921;-40
2022/12/06 12:59:22;;;;;;;;;;;;;;;;;;5152722;27;1163;-40
2022/12/06 13:01:55;;;;;;;;;;;;;;;;;;5152998;27;1094;-41
2022/12/06 13:04:25;;;;;;;;;;;;;;;;;;5152726;27;1264;-39
2022/12/06 13:07:01;;;;;;;;;;;;;;;;;;5152852;27;965;-40
2022/12/06 13:09:37;;;;;;;;;;;;;;;;;;5152672;27;1901;-40
2022/12/06 13:12:10;;;;;;;;;;;;;;;;;;5152856;27;1061;-40
2022/12/06 13:14:39;;;;;;;;;;;;;;;;;;5152855;27;1061;-40
2022/12/06 13:17:07;;;;;;;;;;;;;;;;;;5152964;27;1191;-40
2022/12/06 13:19:39;;;;;;;;;;;;;;;;;;5152561;27;1276;-40
2022/12/06 13:22:12;;;;;;;;;;;;;;;;;;5154442;27;1020;-39
2022/12/06 13:24:42;;;;;;;;;;;;;;;;;;5157140;27;1218;-38
2022/12/06 13:27:15;;;;;;;;;;;;;;;;;;5156769;27;1131;-39
2022/12/06 13:29:48;;;;;;;;;;;;;;;;;;5156845;27;1907;-40
2022/12/06 13:32:21;;;;;;;;;;;;;;;;;;5157043;27;1387;-41
2022/12/06 13:34:53;;;;;;;;;;;;;;;;;;5156763;27;888;-40
2022/12/06 13:37:34;;;;;;;;;;;;;;;;;;5156749;27;1076;-39
2022/12/06 13:40:03;;;;;;;;;;;;;;;;;;5156460;27;1072;-40
2022/12/06 13:42:34;;;;;;;;;;;;;;;;;;5156610;27;990;-41
2022/12/06 13:45:01;;;;;;;;;;;;;;;;;;5156464;27;1058;-40
2022/12/06 13:47:28;;;;;;;;;;;;;;;;;;5156281;27;1075;-41
2022/12/06 13:49:57;;;;;;;;;;;;;;;;;;5156372;27;1923;-42
2022/12/06 13:52:42;;;;;;;;;;;;;;;;;;5156394;27;990;-40
2022/12/06 13:55:24;;;;;;;;;;;;;;;;;;5156206;27;1140;-40
2022/12/06 13:57:54;;;;;;;;;;;;;;;;;;5156547;27;1242;-40
2022/12/06 14:00:27;;;;;;;;;;;;;;;;;;5156212;27;934;-41
2022/12/06 14:03:02;;;;;;;;;;;;;;;;;;5156165;27;1081;-41
2022/12/06 14:05:48;;;;;;;;;;;;;;;;;;5156037;27;1090;-41
2022/12/06 14:08:15;;;;;;;;;;;;;;;;;;5156035;27;1289;-42
2022/12/06 14:10:42;;;;;;;;;;;;;;;;;;5155863;27;1920;-41
2022/12/06 14:13:16;;;;;;;;;;;;;;;;;;5156046;27;926;-41
2022/12/06 14:15:47;;;;;;;;;;;;;;;;;;5156179;27;985;-40
2022/12/06 14:18:22;;;;;;;;;;;;;;;;;;5155794;27;1011;-41
2022/12/06 14:20:51;;;;;;;;;;;;;;;;;;5167968;27;1264;-42
2022/12/06 14:23:22;;;;;;;;;;;;;;;;;;5176802;27;1203;-40
2022/12/06 14:25:50;;;;;;;;;;;;;;;;;;5177082;27;1133;-41
2022/12/06 14:28:20;;;;;;;;;;;;;;;;;;5176808;27;1176;-40
2022/12/06 14:30:47;;;;;;;;;;;;;;;;;;5176654;27;1907;-42
2022/12/06 14:33:20;;;;;;;;;;;;;;;;;;5175835;27;1208;-42
2022/12/06 14:35:51;;;;;;;;;;;;;;;;;;5176806;27;1138;-41
2022/12/06 14:38:18;;;;;;;;;;;;;;;;;;5176648;27;1023;-42
2022/12/06 14:43:34;;;;;;;;;;;;;;;;;;5176153;27;1024;-41
2022/12/06 14:46:03;;;;;;;;;;;;;;;;;;5176448;27;1209;-41
2022/12/06 14:50:22;;;;;;;;;;;;;;;;;;5176132;27;1089;-40
2022/12/06 14:51:26;;;;;;;;;;;;;;;;;;5176272;27;1905;-43
2022/12/06 14:53:53;;;;;;;;;;;;;;;;;;5176082;27;953;-40
2022/12/06 14:56:31;;;;;;;;;;;;;;;;;;5176376;27;1087;-41
2022/12/06 14:58:59;;;;;;;;;;;;;;;;;;5175908;27;1158;-41
2022/12/06 15:01:28;;;;;;;;;;;;;;;;;;5175894;27;1179;-40
2022/12/06 15:03:59;;;;;;;;;;;;;;;;;;5157515;27;973;-40
2022/12/06 15:06:28;;;;;;;;;;;;;;;;;;5175684;27;1189;-41
2022/12/06 15:08:55;;;;;;;;;;;;;;;;;;5175684;27;904;-40
2022/12/06 15:14:15;;;;;;;;;;;;;;;;;;5175940;27;2366;-40
2022/12/06 15:16:44;;;;;;;;;;;;;;;;;;5122620;27;2173;-40
2022/12/06 15:19:15;;;;;;;;;;;;;;;;;;5175734;27;2118;-40
2022/12/06 15:21:42;;;;;;;;;;;;;;;;;;5155871;27;1897;-41
2022/12/06 15:24:16;;;;;;;;;;;;;;;;;;5154886;27;2062;-40
2022/12/06 15:26:44;;;;;;;;;;;;;;;;;;5154746;27;1740;-41
2022/12/06 15:29:11;;;;;;;;;;;;;;;;;;5154373;27;1706;-40
2022/12/06 15:31:40;;;;;;;;;;;;;;;;;;5154436;27;2360;-40
2022/12/06 15:34:22;;;;;;;;;;;;;;;;;;5154554;27;2017;-41
2022/12/06 15:36:49;;;;;;;;;;;;;;;;;;5167612;27;1854;-41
2022/12/06 15:39:29;;;;;;;;;;;;;;;;;;5175201;27;1834;-40
2022/12/06 15:41:56;;;;;;;;;;;;;;;;;;5175322;27;1524;-41
2022/12/06 15:44:26;;;;;;;;;;;;;;;;;;5175067;27;1860;-41
2022/12/06 15:46:53;;;;;;;;;;;;;;;;;;5156260;27;2217;-41
2022/12/06 15:49:28;;;;;;;;;;;;;;;;;;5174767;27;2126;-40
2022/12/06 15:51:55;;;;;;;;;;;;;;;;;;5175196;27;1917;-41
2022/12/06 15:54:24;;;;;;;;;;;;;;;;;;5175142;27;1264;-41
2022/12/06 15:56:51;;;;;;;;;;;;;;;;;;5173751;27;2244;-45
2022/12/06 15:59:19;;;;;;;;;;;;;;;;;;5174877;27;2143;-41
2022/12/06 16:01:49;;;;;;;;;;;;;;;;;;5174669;27;2239;-41
2022/12/06 16:04:23;;;;;;;;;;;;;;;;;;5174733;27;1896;-40
2022/12/06 16:06:50;;;;;;;;;;;;;;;;;;5174463;27;1585;-40
2022/12/06 16:09:18;;;;;;;;;;;;;;;;;;5174749;27;2150;-42
2022/12/06 16:11:45;;;;;;;;;;;;;;;;;;5174598;27;2172;-41
2022/12/06 16:14:12;;;;;;;;;;;;;;;;;;5174540;27;1950;-40
2022/12/06 16:16:39;;;;;;;;;;;;;;;;;;5174649;27;2147;-42
2022/12/06 16:19:09;;;;;;;;;;;;;;;;;;5174589;27;1628;-40
2022/12/06 16:21:49;;;;;;;;;;;;;;;;;;5174279;27;2032;-41
2022/12/06 16:24:16;;;;;;;;;;;;;;;;;;5174405;27;1877;-40
2022/12/06 16:26:43;;;;;;;;;;;;;;;;;;5174367;27;1984;-40
2022/12/06 16:29:16;;;;;;;;;;;;;;;;;;5174297;27;1817;-41
2022/12/06 16:31:47;;;;;;;;;;;;;;;;;;5173972;27;1911;-41
2022/12/06 16:34:15;;;;;;;;;;;;;;;;;;5174229;27;1854;-40
2022/12/06 16:37:07;;;;;;;;;;;;;;;;;;5174254;27;2002;-41
2022/12/06 16:39:34;;;;;;;;;;;;;;;;;;5174130;27;2056;-41
2022/12/06 16:42:05;;;;;;;;;;;;;;;;;;5173956;27;2105;-40
2022/12/06 16:44:32;;;;;;;;;;;;;;;;;;5173953;27;1757;-43
2022/12/06 16:46:59;;;;;;;;;;;;;;;;;;5174199;27;2031;-39
2022/12/06 16:49:27;;;;;;;;;;;;;;;;;;5174289;27;1813;-40
2022/12/06 16:52:12;;;;;;;;;;;;;;;;;;5173875;27;1986;-41
2022/12/06 16:54:40;;;;;;;;;;;;;;;;;;5173847;27;1993;-40
2022/12/06 16:57:09;;;;;;;;;;;;;;;;;;5173572;27;1829;-40
2022/12/06 16:59:36;;;;;;;;;;;;;;;;;;5174001;27;1691;-40
2022/12/06 17:02:15;;;;;;;;;;;;;;;;;;5173622;27;2113;-41
2022/12/06 17:04:42;;;;;;;;;;;;;;;;;;5151314;27;2008;-41
2022/12/06 17:07:09;;;;;;;;;;;;;;;;;;5152772;27;1773;-41
2022/12/06 17:09:36;;;;;;;;;;;;;;;;;;5152924;27;1907;-41
2022/12/06 17:12:05;;;;;;;;;;;;;;;;;;5152838;27;1917;-40
2022/12/06 17:14:34;;;;;;;;;;;;;;;;;;5152880;27;1855;-43
2022/12/06 17:17:02;;;;;;;;;;;;;;;;;;5153072;27;2611;-41
2022/12/06 17:19:30;;;;;;;;;;;;;;;;;;5152468;27;1865;-41
2022/12/06 17:22:00;;;;;;;;;;;;;;;;;;5130934;28;2030;-41
2022/12/06 17:24:28;;;;;;;;;;;;;;;;;;5132246;27;2109;-41
2022/12/06 17:26:55;;;;;;;;;;;;;;;;;;5130732;28;2129;-41
2022/12/06 17:29:22;;;;;;;;;;;;;;;;;;5130624;28;1835;-41
2022/12/06 17:31:50;;;;;;;;;;;;;;;;;;5131932;27;1989;-40
2022/12/06 17:34:18;;;;;;;;;;;;;;;;;;5131880;27;1526;-42
2022/12/06 17:36:46;;;;;;;;;;;;;;;;;;5132081;27;1998;-40
2022/12/06 17:39:14;;;;;;;;;;;;;;;;;;5131853;27;1801;-41
2022/12/06 17:44:27;;;;;;;;;;;;;;;;;;5131791;27;1922;-41
2022/12/06 17:46:55;;;;;;;;;;;;;;;;;;5131557;27;1657;-41
2022/12/06 17:49:23;;;;;;;;;;;;;;;;;;5131838;27;2181;-40
2022/12/06 17:51:50;;;;;;;;;;;;;;;;;;5131734;27;2331;-40
2022/12/06 17:54:18;;;;;;;;;;;;;;;;;;5131556;28;1799;-39
2022/12/06 17:56:46;;;;;;;;;;;;;;;;;;5131794;27;2009;-40
2022/12/06 17:59:14;;;;;;;;;;;;;;;;;;5131523;27;1788;-40
2022/12/06 18:01:41;;;;;;;;;;;;;;;;;;5131801;27;1868;-40
2022/12/06 18:04:29;;;;;;;;;;;;;;;;;;5133835;27;2034;-42
2022/12/06 18:06:57;;;;;;;;;;;;;;;;;;5152212;27;2144;-41